Time;durP1;ratioP1;P1;durP2;ratioP2;P2;SDS_P1;SDS_P2;PMS_P1;PMS_P2;Temp;Humidity;BMP_temperature;BMP_pressure;BME280_temperature;BME280_humidity;BME280_pressure;Samples;Min_cycle;Max_cycle;Signal;HPM_P1;HPM_P2
2023/01/17 00:02:11;;;;;;;3.00;1.00;;;;;;;0.37;97.33;94499.94;4957734;28;20085;-63
2023/01/17 00:10:22;;;;;;;1.63;0.98;;;;;;;0.40;96.02;94503.94;4956973;28;20046;-63
2023/01/17 00:12:51;;;;;;;1.83;0.95;;;;;;;0.43;95.30;94526.56;4959300;28;20043;-62
2023/01/17 00:15:18;;;;;;;1.50;0.80;;;;;;;0.48;94.94;94524.75;4961790;28;20090;-63
2023/01/17 00:17:46;;;;;;;1.33;0.70;;;;;;;0.45;95.22;94532.44;4959104;28;20539;-62
2023/01/17 00:26:02;;;;;;;1.88;0.93;;;;;;;0.47;93.26;94525.81;4959966;28;20113;-62
2023/01/17 01:35:49;;;;;;;2.83;1.10;;;;;;;0.58;88.67;94579.91;4956266;28;20039;-63
2023/01/17 01:38:18;;;;;;;2.53;1.05;;;;;;;0.53;89.27;94587.88;4953403;28;20495;-63
2023/01/17 01:40:47;;;;;;;4.30;1.20;;;;;;;0.40;91.43;94585.66;4960236;28;20040;-63
2023/01/17 01:43:16;;;;;;;4.47;1.15;;;;;;;0.39;91.66;94595.50;4962326;28;20602;-63
2023/01/17 01:45:49;;;;;;;2.92;1.27;;;;;;;0.49;90.30;94590.25;4961804;28;20049;-63
2023/01/17 01:48:31;;;;;;;3.40;1.05;;;;;;;0.63;89.65;94595.13;4960578;28;20043;-63
2023/01/17 01:51:00;;;;;;;1.65;0.95;;;;;;;0.64;89.44;94602.06;4952122;28;20043;-63
2023/01/17 01:53:27;;;;;;;2.30;1.27;;;;;;;0.77;89.29;94606.09;4965637;28;20130;-62
2023/01/17 01:55:54;;;;;;;2.92;1.20;;;;;;;0.69;90.07;94601.28;4961245;28;20051;-63
2023/01/17 01:58:26;;;;;;;2.92;1.10;;;;;;;0.60;90.54;94596.44;4962951;28;20118;-63
2023/01/17 02:00:52;;;;;;;2.38;1.10;;;;;;;0.55;94.11;94601.72;4966449;28;20043;-63
2023/01/17 02:03:28;;;;;;;2.03;1.00;;;;;;;0.49;93.82;94606.25;4960883;28;20043;-63
2023/01/17 02:06:01;;;;;;;3.42;1.33;;;;;;;0.39;98.17;94600.81;4958711;28;20098;-63
2023/01/17 02:08:28;;;;;;;3.13;1.55;;;;;;;0.41;95.81;94605.91;4962259;28;20581;-63
2023/01/17 02:10:55;;;;;;;3.92;1.02;;;;;;;0.37;95.93;94602.97;4955979;28;20054;-63
2023/01/17 02:13:21;;;;;;;2.97;1.40;;;;;;;0.23;98.11;94600.72;4956445;28;20044;-63
2023/01/17 02:16:12;;;;;;;3.40;1.42;;;;;;;0.40;100.00;94597.09;4978801;28;20062;-63
2023/01/17 02:18:54;;;;;;;1.80;1.10;;;;;;;0.32;100.00;94595.72;4958059;28;20031;-63
2023/01/17 02:21:41;;;;;;;4.20;2.20;;;;;;;0.37;100.00;94595.75;4956846;28;20047;-63
2023/01/17 02:24:26;;;;;;;2.83;1.15;;;;;;;0.39;100.00;94584.84;4946707;28;20100;-63
2023/01/17 02:26:58;;;;;;;2.33;1.23;;;;;;;0.18;99.37;94594.56;4957563;28;20126;-63
2023/01/17 02:29:24;;;;;;;;;;;;;;;0.25;100.00;94590.63;4958598;28;20122;-63
2023/01/17 02:32:00;;;;;;;3.22;1.48;;;;;;;0.30;100.00;94595.19;4965683;28;19926;-63
2023/01/17 02:34:38;;;;;;;3.65;1.40;;;;;;;0.28;100.00;94591.16;4952957;28;20509;-63
2023/01/17 02:37:22;;;;;;;3.72;1.40;;;;;;;0.20;100.00;94593.25;4960236;28;20462;-63
2023/01/17 02:40:05;;;;;;;6.03;1.90;;;;;;;0.34;99.53;94590.16;4960081;28;20506;-63
2023/01/17 02:42:45;;;;;;;6.18;1.50;;;;;;;0.23;98.49;94589.28;4955729;28;20046;-63
2023/01/17 02:45:17;;;;;;;2.42;1.25;;;;;;;0.30;97.89;94592.53;4958910;28;20104;-63
2023/01/17 02:47:44;;;;;;;2.25;1.15;;;;;;;0.41;98.82;94588.06;4957107;28;20054;-63
2023/01/17 02:50:16;;;;;;;3.55;1.00;;;;;;;0.22;98.72;94591.13;4948048;28;20047;-63
2023/01/17 02:53:04;;;;;;;2.50;1.10;;;;;;;0.30;98.71;94587.22;4962903;28;20094;-63
2023/01/17 02:55:53;;;;;;;4.63;1.20;;;;;;;0.30;100.00;94587.22;4959247;28;20105;-63
2023/01/17 02:58:38;;;;;;;4.25;1.15;;;;;;;0.29;100.00;94590.91;4958015;28;20096;-64
2023/01/17 03:01:32;;;;;;;3.17;1.25;;;;;;;0.29;99.52;94584.78;4955981;28;20542;-64
2023/01/17 03:04:05;;;;;;;3.72;1.30;;;;;;;0.37;99.89;94579.78;4959657;28;20129;-63
2023/01/17 03:06:42;;;;;;;3.50;1.13;;;;;;;0.36;99.48;94590.69;4962242;28;20043;-64
2023/01/17 03:09:10;;;;;;;2.45;1.15;;;;;;;0.49;97.31;94587.59;4959840;28;20042;-63
2023/01/17 03:11:37;;;;;;;2.95;1.10;;;;;;;0.54;96.56;94589.47;4958836;28;20047;-63
2023/01/17 03:14:03;;;;;;;2.83;1.13;;;;;;;0.64;96.80;94594.88;4962494;28;20050;-63
2023/01/17 03:16:32;;;;;;;2.13;0.93;;;;;;;0.45;98.72;94597.16;4963644;28;20045;-63
2023/01/17 03:18:58;;;;;;;2.25;1.17;;;;;;;0.17;100.00;94599.06;4956756;28;20114;-63
2023/01/17 03:21:25;;;;;;;3.17;1.45;;;;;;;0.07;100.00;94602.44;4957290;28;20043;-63
2023/01/17 03:23:51;;;;;;;2.03;1.00;;;;;;;0.31;100.00;94611.94;4960682;28;20039;-63
2023/01/17 03:26:18;;;;;;;2.38;1.05;;;;;;;0.12;100.00;94612.34;4955884;28;20047;-63
2023/01/17 03:28:44;;;;;;;4.93;1.33;;;;;;;-0.03;100.00;94615.69;4957983;28;20031;-63
2023/01/17 03:31:15;;;;;;;2.42;1.10;;;;;;;-0.20;100.00;94624.56;4963042;28;20053;-63
2023/01/17 03:33:42;;;;;;;2.73;1.33;;;;;;;-0.37;100.00;94619.34;4959910;28;20038;-63
2023/01/17 03:36:09;;;;;;;3.80;1.20;;;;;;;-0.38;100.00;94614.28;4957387;28;20053;-63
2023/01/17 03:38:36;;;;;;;2.63;1.45;;;;;;;-0.40;100.00;94622.53;4963635;28;20062;-63
2023/01/17 03:41:03;;;;;;;2.40;1.10;;;;;;;-0.38;100.00;94623.06;4964438;28;20063;-63
2023/01/17 03:43:30;;;;;;;4.28;1.02;;;;;;;-0.38;100.00;94616.97;4958688;28;20058;-63
2023/01/17 03:46:19;;;;;;;3.45;1.23;;;;;;;-0.37;100.00;94611.38;4960725;28;20044;-63
2023/01/17 03:48:46;;;;;;;4.47;1.00;;;;;;;-0.42;100.00;94611.31;4955714;28;20039;-63
2023/01/17 03:51:13;;;;;;;2.45;1.20;;;;;;;-0.47;100.00;94605.97;4958673;28;20073;-63
2023/01/17 03:53:39;;;;;;;1.75;0.90;;;;;;;-0.36;100.00;94598.88;4965482;28;20477;-62
2023/01/17 03:56:06;;;;;;;2.10;1.30;;;;;;;-0.42;100.00;94600.69;4959206;28;20489;-63
2023/01/17 03:58:32;;;;;;;1.65;0.90;;;;;;;-0.47;100.00;94596.13;4963060;28;20039;-63
2023/01/17 04:00:59;;;;;;;2.50;1.10;;;;;;;-0.54;100.00;94601.66;4964691;28;20047;-62
2023/01/17 04:03:26;;;;;;;5.13;1.30;;;;;;;-0.47;100.00;94603.28;4959305;28;20046;-63
2023/01/17 04:05:52;;;;;;;1.52;0.93;;;;;;;-0.47;100.00;94601.44;4959741;28;20031;-63
2023/01/17 04:08:18;;;;;;;2.25;0.93;;;;;;;-0.45;100.00;94598.53;4953315;28;20366;-63
2023/01/17 04:10:45;;;;;;;2.50;1.10;;;;;;;-0.43;100.00;94593.78;4960330;28;20492;-63
2023/01/17 04:13:12;;;;;;;2.70;0.90;;;;;;;-0.40;100.00;94598.59;4958344;28;20081;-63
2023/01/17 04:15:39;;;;;;;1.70;0.93;;;;;;;-0.43;100.00;94601.75;4963344;28;20082;-63
2023/01/17 04:18:06;;;;;;;2.70;0.90;;;;;;;-0.31;100.00;94606.91;4956694;28;20047;-63
2023/01/17 04:20:37;;;;;;;1.58;0.93;;;;;;;-0.40;99.19;94607.34;4959111;28;20082;-63
2023/01/17 04:23:05;;;;;;;3.35;1.10;;;;;;;-0.55;100.00;94605.34;4958770;28;20049;-63
2023/01/17 04:25:32;;;;;;;2.30;1.33;;;;;;;-0.47;100.00;94598.78;4959493;28;20062;-63
2023/01/17 04:28:00;;;;;;;1.52;0.82;;;;;;;-0.56;99.57;94595.78;4965318;28;20051;-63
2023/01/17 04:30:27;;;;;;;2.35;1.10;;;;;;;-0.53;99.71;94592.63;4959081;28;20047;-63
2023/01/17 04:32:54;;;;;;;1.75;0.90;;;;;;;-0.48;98.69;94594.50;4962890;28;20096;-63
2023/01/17 04:35:21;;;;;;;1.38;0.70;;;;;;;-0.28;96.82;94599.25;4961384;28;20046;-63
2023/01/17 04:37:47;;;;;;;1.13;0.75;;;;;;;-0.18;94.28;94608.38;4956710;28;20503;-63
2023/01/17 04:40:14;;;;;;;3.35;0.57;;;;;;;-0.07;92.13;94610.03;4960986;28;20105;-63
2023/01/17 04:42:43;;;;;;;3.75;0.63;;;;;;;0.05;89.76;94607.25;4961188;28;20384;-62
2023/01/17 04:45:11;;;;;;;0.43;0.40;;;;;;;0.23;88.46;94615.88;4962752;28;20525;-63
2023/01/17 04:47:37;;;;;;;1.02;0.60;;;;;;;0.15;88.34;94613.69;4956777;28;20046;-62
2023/01/17 04:50:04;;;;;;;1.40;0.60;;;;;;;0.10;88.86;94615.25;4960495;28;20051;-63
2023/01/17 04:52:30;;;;;;;2.28;1.15;;;;;;;-0.04;90.00;94614.88;4959095;28;20049;-63
2023/01/17 04:54:57;;;;;;;1.23;0.50;;;;;;;-0.07;88.90;94611.91;4959307;28;20054;-63
2023/01/17 04:57:24;;;;;;;1.27;0.70;;;;;;;-0.13;88.57;94603.09;4965355;28;20046;-63
2023/01/17 04:59:52;;;;;;;1.40;0.60;;;;;;;-0.19;88.30;94607.56;4968736;28;20498;-63
2023/01/17 05:02:19;;;;;;;1.33;0.60;;;;;;;-0.20;88.93;94613.94;4962293;28;20039;-63
2023/01/17 05:04:46;;;;;;;2.42;0.68;;;;;;;-0.19;88.84;94612.88;4958335;28;20066;-63
2023/01/17 05:07:12;;;;;;;2.00;0.70;;;;;;;-0.19;89.57;94612.88;4961395;28;20051;-63
2023/01/17 05:09:39;;;;;;;1.88;0.90;;;;;;;-0.19;89.31;94612.09;4965269;28;20039;-63
2023/01/17 05:12:05;;;;;;;0.95;0.68;;;;;;;-0.15;88.82;94610.50;4967346;28;20430;-64
2023/01/17 05:14:33;;;;;;;1.20;0.70;;;;;;;-0.11;88.21;94611.59;4961899;28;20039;-63
2023/01/17 05:17:01;;;;;;;1.13;0.80;;;;;;;-0.33;90.17;94601.06;4960226;28;20050;-63
2023/01/17 05:19:28;;;;;;;1.45;0.80;;;;;;;-0.64;92.72;94601.53;4964308;28;20117;-63
2023/01/17 05:21:54;;;;;;;1.48;0.85;;;;;;;-0.91;94.93;94599.63;4961254;28;20038;-63
2023/01/17 05:24:21;;;;;;;4.10;1.17;;;;;;;-1.03;95.87;94597.13;4959711;28;20077;-63
2023/01/17 05:26:53;;;;;;;2.75;1.08;;;;;;;-1.06;97.74;94601.03;4963603;28;20047;-63
2023/01/17 05:29:20;;;;;;;2.70;1.00;;;;;;;-0.97;100.00;94595.31;4966609;28;20488;-63
2023/01/17 05:31:47;;;;;;;4.28;1.60;;;;;;;-1.13;99.06;94600.44;4966811;28;20043;-63
2023/01/17 05:34:13;;;;;;;2.60;1.25;;;;;;;-1.53;98.59;94606.78;4962104;28;20459;-63
2023/01/17 05:36:40;;;;;;;2.70;1.40;;;;;;;-1.54;100.00;94605.19;4961823;28;20070;-63
2023/01/17 05:39:06;;;;;;;6.43;1.50;;;;;;;-1.80;100.00;94608.28;4956822;28;20074;-63
2023/01/17 05:41:33;;;;;;;2.42;1.35;;;;;;;-1.85;100.00;94608.19;4964722;28;20050;-63
2023/01/17 05:43:59;;;;;;;3.88;1.38;;;;;;;-1.84;100.00;94591.25;4960404;28;20073;-63
2023/01/17 05:46:26;;;;;;;2.97;1.30;;;;;;;-1.92;100.00;94592.44;4956576;28;20075;-63
2023/01/17 05:48:52;;;;;;;2.45;1.00;;;;;;;-1.82;100.00;94589.13;4958563;28;20073;-63
2023/01/17 05:51:18;;;;;;;2.22;1.30;;;;;;;-1.87;100.00;94584.56;4962720;28;20077;-63
2023/01/17 05:53:45;;;;;;;3.55;1.10;;;;;;;-2.07;100.00;94576.31;4960108;28;20047;-63
2023/01/17 05:56:11;;;;;;;5.50;1.33;;;;;;;-2.21;100.00;94579.28;4962233;28;20150;-63
2023/01/17 05:58:38;;;;;;;4.50;1.60;;;;;;;-2.44;100.00;94577.56;4964700;28;20043;-63
2023/01/17 06:01:05;;;;;;;5.95;1.15;;;;;;;-2.56;100.00;94572.31;4965664;28;20042;-63
2023/01/17 06:03:31;;;;;;;2.95;1.33;;;;;;;-2.67;100.00;94571.31;4965155;28;20049;-63
2023/01/17 06:05:58;;;;;;;2.95;1.40;;;;;;;-2.59;100.00;94570.16;4962184;28;20433;-63
2023/01/17 06:08:24;;;;;;;4.15;1.40;;;;;;;-2.76;100.00;94566.41;4960315;28;20071;-63
2023/01/17 06:10:51;;;;;;;5.38;1.83;;;;;;;-2.87;100.00;94564.63;4959044;28;20046;-63
2023/01/17 06:13:20;;;;;;;4.07;1.63;;;;;;;-2.82;100.00;94563.91;4962792;28;20125;-63
2023/01/17 06:15:47;;;;;;;6.05;1.60;;;;;;;-2.79;100.00;94564.25;4961731;28;20051;-65
2023/01/17 06:18:16;;;;;;;4.28;1.33;;;;;;;-2.58;100.00;94556.63;4957863;28;20347;-64
2023/01/17 06:20:43;;;;;;;5.63;2.15;;;;;;;-2.69;100.00;94555.66;4957753;28;20043;-64
2023/01/17 06:23:12;;;;;;;4.55;1.70;;;;;;;-2.92;100.00;94552.06;4962345;28;20051;-64
2023/01/17 06:25:43;;;;;;;4.78;1.80;;;;;;;-2.92;100.00;94556.56;4962054;28;20136;-64
2023/01/17 06:28:11;;;;;;;26.20;11.02;;;;;;;-2.81;100.00;94550.41;4960318;28;20489;-65
2023/01/17 06:30:38;;;;;;;22.05;11.65;;;;;;;-2.97;100.00;94548.53;4953938;28;20093;-64
2023/01/17 06:33:05;;;;;;;17.65;8.35;;;;;;;-3.08;100.00;94553.63;4960680;28;20338;-64
2023/01/17 06:35:31;;;;;;;10.13;3.65;;;;;;;-3.24;100.00;94562.31;4952030;28;20161;-64
2023/01/17 06:37:59;;;;;;;8.68;4.30;;;;;;;-3.11;100.00;94559.41;4953961;28;20433;-65
2023/01/17 06:40:27;;;;;;;4.95;2.90;;;;;;;-3.00;100.00;94568.34;4960271;28;20092;-65
2023/01/17 06:42:58;;;;;;;8.50;3.50;;;;;;;-2.96;100.00;94556.25;4961723;28;20043;-64
2023/01/17 06:45:24;;;;;;;3.42;1.90;;;;;;;-2.89;100.00;94556.91;4958306;28;20569;-65
2023/01/17 06:47:51;;;;;;;3.20;1.45;;;;;;;-2.43;100.00;94548.16;4957499;28;20109;-64
2023/01/17 06:50:17;;;;;;;4.82;1.75;;;;;;;-2.01;100.00;94548.81;4958981;28;20097;-65
2023/01/17 06:52:54;;;;;;;3.28;1.60;;;;;;;-1.97;100.00;94556.03;4954092;28;20445;-64
2023/01/17 06:55:21;;;;;;;13.15;7.85;;;;;;;-2.12;100.00;94555.81;4954522;28;20047;-65
2023/01/17 06:57:48;;;;;;;7.07;3.80;;;;;;;-2.36;100.00;94556.75;4958607;28;20048;-65
2023/01/17 07:00:16;;;;;;;6.13;2.35;;;;;;;-2.47;100.00;94554.19;4960385;28;20047;-62
2023/01/17 07:02:46;;;;;;;5.43;2.38;;;;;;;-2.33;100.00;94552.03;4958327;28;20066;-63
2023/01/17 07:05:13;;;;;;;5.55;2.85;;;;;;;-2.20;100.00;94548.25;4957975;28;20041;-63
2023/01/17 07:07:39;;;;;;;6.25;2.03;;;;;;;-2.06;100.00;94549.53;4950997;28;20050;-62
2023/01/17 07:10:06;;;;;;;5.78;3.05;;;;;;;-2.37;100.00;94546.38;4955104;28;20081;-63
2023/01/17 07:12:32;;;;;;;8.07;4.22;;;;;;;-2.52;100.00;94537.16;4956973;28;20046;-62
2023/01/17 07:14:59;;;;;;;9.02;3.65;;;;;;;-2.59;100.00;94543.66;4962267;28;20082;-62
2023/01/17 07:17:25;;;;;;;7.90;3.47;;;;;;;-2.76;100.00;94533.81;4961976;28;20109;-63
2023/01/17 07:19:52;;;;;;;6.43;3.80;;;;;;;-2.82;100.00;94540.06;4959279;28;20040;-63
2023/01/17 07:22:18;;;;;;;6.40;2.65;;;;;;;-2.75;100.00;94541.53;4958158;28;20655;-62
2023/01/17 07:24:45;;;;;;;5.65;2.88;;;;;;;-2.71;100.00;94538.41;4960544;28;20087;-63
2023/01/17 07:27:11;;;;;;;4.60;2.42;;;;;;;-2.78;100.00;94541.19;4959227;28;20050;-62
2023/01/17 07:29:38;;;;;;;4.47;2.88;;;;;;;-2.58;100.00;94542.59;4961038;28;20131;-63
2023/01/17 07:32:04;;;;;;;6.53;2.97;;;;;;;-2.84;100.00;94540.28;4959442;28;20070;-62
2023/01/17 07:34:31;;;;;;;4.90;2.58;;;;;;;-2.93;100.00;94534.59;4963495;28;20390;-62
2023/01/17 07:36:57;;;;;;;4.43;2.08;;;;;;;-2.95;100.00;94530.56;4951015;28;20126;-62
2023/01/17 07:39:24;;;;;;;7.43;3.38;;;;;;;-2.56;100.00;94528.06;4962317;28;20525;-63
2023/01/17 07:41:50;;;;;;;5.75;2.83;;;;;;;-2.53;100.00;94524.13;4955991;28;20082;-62
2023/01/17 07:44:18;;;;;;;6.13;3.30;;;;;;;-2.44;100.00;94521.91;4961825;28;20057;-63
2023/01/17 07:46:44;;;;;;;5.32;2.67;;;;;;;-2.61;100.00;94517.41;4957578;28;20051;-62
2023/01/17 07:49:11;;;;;;;9.20;3.33;;;;;;;-2.90;100.00;94518.25;4957568;28;20062;-62
2023/01/17 07:51:37;;;;;;;10.02;3.25;;;;;;;-3.01;100.00;94522.53;4954603;28;20454;-47
2023/01/17 07:54:04;;;;;;;6.28;3.22;;;;;;;-3.04;100.00;94517.72;4953888;28;20299;-51
2023/01/17 07:56:33;;;;;;;8.15;3.58;;;;;;;-2.93;100.00;94520.53;4949943;28;20077;-49
2023/01/17 07:59:00;;;;;;;5.22;3.05;;;;;;;-2.81;100.00;94521.28;4972069;28;20059;-49
2023/01/17 08:01:27;;;;;;;6.50;3.58;;;;;;;-2.75;100.00;94512.41;4950172;28;20042;-50
2023/01/17 08:03:53;;;;;;;11.50;3.67;;;;;;;-2.83;100.00;94520.75;4956711;28;20127;-49
2023/01/17 08:06:23;;;;;;;11.40;3.95;;;;;;;-2.45;100.00;94520.28;4947623;28;20150;-53
2023/01/17 08:08:51;;;;;;;8.73;4.15;;;;;;;-2.93;100.00;94517.88;4952337;28;20048;-47
2023/01/17 08:11:17;;;;;;;5.97;3.38;;;;;;;-3.04;100.00;94522.19;4949427;28;20055;-48
2023/01/17 08:13:43;;;;;;;8.40;4.13;;;;;;;-2.76;100.00;94526.66;4947574;28;20038;-48
2023/01/17 08:16:11;;;;;;;7.57;3.90;;;;;;;-2.55;100.00;94519.06;4953305;28;20054;-48
2023/01/17 08:18:38;;;;;;;8.13;4.07;;;;;;;-2.53;100.00;94519.66;4956885;28;20078;-50
2023/01/17 08:21:12;;;;;;;6.28;3.58;;;;;;;-2.51;100.00;94522.06;4950996;28;20145;-50
2023/01/17 08:23:38;;;;;;;7.15;3.88;;;;;;;-2.39;100.00;94522.78;4953357;28;20105;-62
2023/01/17 08:26:05;;;;;;;6.15;3.58;;;;;;;-2.49;100.00;94517.31;4948705;28;20079;-64
2023/01/17 08:28:31;;;;;;;8.75;4.32;;;;;;;-2.29;100.00;94518.69;4953056;28;20504;-64
2023/01/17 08:31:05;;;;;;;11.38;5.63;;;;;;;-1.89;100.00;94511.56;4957650;28;20535;-62
2023/01/17 08:33:31;;;;;;;16.00;9.13;;;;;;;-1.87;100.00;94512.97;4971244;28;20051;-63
2023/01/17 08:35:58;;;;;;;7.45;4.28;;;;;;;-1.68;100.00;94512.69;4952566;28;20082;-61
2023/01/17 08:38:24;;;;;;;22.42;11.30;;;;;;;-1.55;100.00;94516.81;4957063;28;20074;-63
2023/01/17 08:40:51;;;;;;;7.80;3.80;;;;;;;-1.39;100.00;94517.00;4953303;28;20149;-64
2023/01/17 08:43:18;;;;;;;25.92;11.68;;;;;;;-1.22;100.00;94504.47;4951036;28;20130;-63
2023/01/17 08:45:47;;;;;;;12.93;6.35;;;;;;;-1.10;100.00;94501.66;4960863;28;20118;-64
2023/01/17 08:48:14;;;;;;;11.15;5.25;;;;;;;-0.82;100.00;94499.03;4953171;28;20043;-62
2023/01/17 08:50:40;;;;;;;7.10;3.75;;;;;;;-0.68;100.00;94499.44;4953149;28;20035;-63
2023/01/17 08:53:07;;;;;;;10.07;5.15;;;;;;;-0.56;100.00;94505.41;4952042;28;20043;-63
2023/01/17 08:55:38;;;;;;;4.78;2.45;;;;;;;-0.37;100.00;94498.91;4959702;28;20049;-63
2023/01/17 08:58:04;;;;;;;10.77;5.28;;;;;;;-0.22;100.00;94500.88;4957347;28;20066;-64
2023/01/17 09:00:31;;;;;;;10.15;3.95;;;;;;;-0.15;100.00;94498.78;4960396;28;20491;-63
2023/01/17 09:02:58;;;;;;;10.45;4.82;;;;;;;-0.02;100.00;94497.56;4957556;28;20404;-63
2023/01/17 09:05:24;;;;;;;37.28;17.60;;;;;;;0.10;100.00;94495.53;4963254;28;20058;-60
2023/01/17 09:07:51;;;;;;;37.90;16.40;;;;;;;0.21;99.27;94499.03;4959052;28;20077;-62
2023/01/17 09:10:17;;;;;;;7.38;3.33;;;;;;;0.34;100.00;94495.13;4956709;28;20720;-62
2023/01/17 09:12:44;;;;;;;9.57;4.25;;;;;;;0.48;99.62;94492.78;4956761;28;20074;-64
2023/01/17 09:15:13;;;;;;;9.10;3.03;;;;;;;0.57;98.23;94497.63;4954237;28;20053;-63
2023/01/17 09:17:39;;;;;;;3.80;2.10;;;;;;;0.62;95.90;94494.97;4956181;28;20051;-64
2023/01/17 09:20:07;;;;;;;6.40;2.53;;;;;;;0.66;95.64;94493.41;4960829;28;20043;-64
2023/01/17 09:22:34;;;;;;;5.28;2.33;;;;;;;0.68;94.73;94485.16;4960882;28;20050;-63
2023/01/17 09:25:01;;;;;;;9.98;4.85;;;;;;;0.76;94.33;94487.31;4959742;28;20051;-63
2023/01/17 09:27:27;;;;;;;5.40;2.63;;;;;;;0.77;93.82;94483.59;4952580;28;20047;-62
2023/01/17 09:29:54;;;;;;;10.32;5.20;;;;;;;0.79;93.54;94481.47;4950335;28;20370;-64
2023/01/17 09:32:20;;;;;;;9.00;5.97;;;;;;;0.82;93.27;94470.31;4956339;28;20105;-63
2023/01/17 09:34:47;;;;;;;5.10;2.35;;;;;;;0.84;93.58;94467.34;4946740;28;20127;-63
2023/01/17 09:37:13;;;;;;;10.38;6.53;;;;;;;0.87;93.55;94457.00;4955194;28;20510;-63
2023/01/17 09:39:40;;;;;;;5.88;2.35;;;;;;;0.90;93.56;94453.00;4948929;28;20047;-64
2023/01/17 09:42:28;;;;;;;5.65;2.67;;;;;;;1.06;92.30;94466.38;4959908;28;20061;-64
2023/01/17 09:44:55;;;;;;;39.63;15.88;;;;;;;0.99;92.20;94479.94;4959873;28;20445;-64
2023/01/17 09:47:33;;;;;;;11.70;2.90;;;;;;;1.01;92.23;94469.81;4959737;28;20588;-63
2023/01/17 09:50:07;;;;;;;9.48;3.00;;;;;;;1.03;91.10;94473.00;4951868;28;20066;-64
2023/01/17 09:52:33;;;;;;;39.17;15.20;;;;;;;1.11;90.94;94466.38;4961753;28;20063;-63
2023/01/17 09:55:00;;;;;;;7.80;3.60;;;;;;;1.22;92.05;94467.97;4957971;28;20046;-63
2023/01/17 09:57:37;;;;;;;14.13;6.18;;;;;;;1.28;90.12;94466.94;4951238;28;20050;-63
2023/01/17 10:00:41;;;;;;;12.38;5.45;;;;;;;1.36;89.46;94460.28;4958109;28;20050;-63
2023/01/17 10:03:24;;;;;;;6.47;2.63;;;;;;;1.56;90.45;94454.13;4959465;28;20505;-63
2023/01/17 10:06:00;;;;;;;3.60;1.60;;;;;;;1.56;88.71;94464.03;4951571;28;20212;-63
2023/01/17 10:08:56;;;;;;;3.08;1.40;;;;;;;1.60;89.18;94459.75;4956477;28;20050;-61
2023/01/17 10:11:41;;;;;;;3.05;0.82;;;;;;;1.65;86.22;94445.59;4959318;28;20038;-63
2023/01/17 10:14:39;;;;;;;3.38;1.85;;;;;;;1.70;85.02;94445.63;4950846;28;20085;-62
2023/01/17 10:17:27;;;;;;;4.32;2.30;;;;;;;1.80;85.17;94442.94;4956405;28;20101;-62
2023/01/17 10:20:02;;;;;;;2.38;0.90;;;;;;;1.76;83.23;94441.06;4952619;28;20114;-62
2023/01/17 10:23:00;;;;;;;2.22;0.80;;;;;;;1.87;83.45;94444.53;4957829;28;20097;-61
2023/01/17 10:25:26;;;;;;;3.35;1.02;;;;;;;1.82;81.74;94448.00;4959357;28;20545;-63
2023/01/17 10:27:57;;;;;;;1.92;0.90;;;;;;;1.83;82.85;94454.16;4957811;28;20059;-61
2023/01/17 10:30:37;;;;;;;2.75;0.98;;;;;;;1.87;83.40;94452.53;4949808;28;21847;-60
2023/01/17 10:33:18;;;;;;;2.65;1.10;;;;;;;1.99;81.82;94450.38;4956569;28;20470;-62
2023/01/17 10:36:02;;;;;;;1.38;0.80;;;;;;;2.10;81.28;94451.16;4959819;28;20130;-62
2023/01/17 10:38:35;;;;;;;2.70;1.10;;;;;;;2.16;81.93;94442.06;4952669;28;20044;-59
2023/01/17 10:41:13;;;;;;;2.95;1.17;;;;;;;2.08;84.13;94437.28;4955091;28;20056;-61
2023/01/17 10:43:46;;;;;;;4.72;1.10;;;;;;;2.06;84.04;94434.06;4956496;28;20051;-61
2023/01/17 10:46:17;;;;;;;1.83;0.90;;;;;;;2.14;83.21;94432.75;4956761;28;20047;-60
2023/01/17 10:48:49;;;;;;;1.90;0.93;;;;;;;2.21;82.64;94430.56;4953887;28;20456;-61
2023/01/17 10:51:42;;;;;;;2.67;1.27;;;;;;;2.29;82.20;94429.22;4954439;28;20074;-61
2023/01/17 10:54:31;;;;;;;1.60;0.88;;;;;;;2.32;80.99;94428.69;4955468;28;20123;-61
2023/01/17 10:56:58;;;;;;;2.88;0.90;;;;;;;2.35;79.34;94422.78;4953023;28;20073;-62
2023/01/17 10:59:32;;;;;;;3.20;0.93;;;;;;;2.51;80.40;94423.53;4951109;28;20470;-64
2023/01/17 11:02:06;;;;;;;1.63;0.90;;;;;;;2.62;79.34;94431.50;4957929;28;20080;-63
2023/01/17 11:04:38;;;;;;;5.43;1.10;;;;;;;2.73;78.61;94425.06;4959699;28;20069;-65
2023/01/17 11:07:11;;;;;;;5.97;2.00;;;;;;;2.80;77.54;94428.22;4937729;28;20057;-63
2023/01/17 11:09:43;;;;;;;3.20;1.00;;;;;;;2.89;77.49;94430.31;4957277;28;21507;-64
2023/01/17 11:12:16;;;;;;;1.90;0.80;;;;;;;2.94;76.72;94420.38;4953071;28;20051;-63
2023/01/17 11:14:57;;;;;;;26.38;14.57;;;;;;;2.90;74.67;94416.69;4953011;28;20067;-64
2023/01/17 11:17:26;;;;;;;3.10;1.50;;;;;;;2.99;74.72;94398.97;4952992;28;20127;-60
2023/01/17 11:20:04;;;;;;;3.90;1.08;;;;;;;3.14;74.04;94399.16;4954719;28;20051;-63
2023/01/17 11:22:31;;;;;;;2.08;1.20;;;;;;;3.13;74.75;94398.34;4939927;28;20034;-61
2023/01/17 11:24:59;;;;;;;3.40;1.30;;;;;;;3.08;74.84;94396.53;4957912;28;20121;-62
2023/01/17 11:27:31;;;;;;;14.60;6.78;;;;;;;2.92;73.13;94395.84;4955003;28;20070;-63
2023/01/17 11:30:06;;;;;;;10.80;5.30;;;;;;;3.03;73.45;94385.88;4952190;28;20526;-62
2023/01/17 11:32:33;;;;;;;3.30;1.25;;;;;;;3.12;73.47;94388.72;4953928;28;20569;-64
2023/01/17 11:35:12;;;;;;;5.68;1.85;;;;;;;3.34;71.56;94371.47;4952795;28;20133;-63
2023/01/17 11:37:47;;;;;;;3.17;0.98;;;;;;;3.37;71.05;94368.22;4956968;28;20776;-64
2023/01/17 11:40:14;;;;;;;4.25;0.93;;;;;;;3.55;71.17;94369.41;4958285;28;20050;-63
2023/01/17 11:42:40;;;;;;;5.32;2.67;;;;;;;3.58;68.13;94376.09;4953290;28;20046;-62
2023/01/17 11:45:28;;;;;;;4.70;2.22;;;;;;;3.61;64.68;94370.19;4952819;28;20049;-63
2023/01/17 11:48:16;;;;;;;4.63;0.73;;;;;;;3.73;67.59;94381.28;4961925;28;20193;-63
2023/01/17 11:50:58;;;;;;;1.50;0.57;;;;;;;3.82;66.39;94369.97;4955402;28;20117;-63
2023/01/17 11:53:28;;;;;;;1.65;0.75;;;;;;;4.03;64.42;94343.78;4978280;28;20097;-62
2023/01/17 11:56:08;;;;;;;13.77;6.00;;;;;;;3.73;63.67;94332.34;4951891;28;20055;-64
2023/01/17 11:58:37;;;;;;;4.18;1.65;;;;;;;3.73;65.97;94329.66;4953402;28;20078;-62
2023/01/17 12:01:12;;;;;;;2.45;1.10;;;;;;;3.64;65.32;94332.94;4951167;28;20043;-63
2023/01/17 12:03:45;;;;;;;2.35;0.93;;;;;;;3.82;66.42;94327.13;4950604;28;20565;-64
2023/01/17 12:06:25;;;;;;;1.10;0.60;;;;;;;3.88;65.42;94326.78;4955579;28;20043;-63
2023/01/17 12:09:23;;;;;;;2.20;0.75;;;;;;;3.95;61.67;94307.75;4951303;28;20056;-62
2023/01/17 12:15:32;;;;;;;2.97;0.93;;;;;;;3.68;61.78;94294.94;4960536;28;20054;-63
2023/01/17 12:18:27;;;;;;;4.45;0.88;;;;;;;3.56;62.96;94290.75;4953439;28;20070;-63
2023/01/17 12:21:15;;;;;;;1.92;1.05;;;;;;;3.41;62.26;94285.53;4953858;28;20090;-64
2023/01/17 12:23:41;;;;;;;4.05;0.90;;;;;;;3.27;62.01;94278.19;4952813;28;20047;-64
2023/01/17 12:26:22;;;;;;;2.78;0.60;;;;;;;3.12;62.60;94273.78;4954761;28;20051;-63
2023/01/17 12:29:04;;;;;;;1.35;0.57;;;;;;;2.99;63.68;94280.59;4960507;28;20035;-65
2023/01/17 12:31:40;;;;;;;6.13;0.80;;;;;;;3.06;64.51;94272.25;4949422;28;20047;-63
2023/01/17 12:34:28;;;;;;;1.85;0.93;;;;;;;2.90;64.33;94277.69;4955215;28;20066;-64
2023/01/17 12:37:04;;;;;;;2.92;1.10;;;;;;;2.95;67.42;94268.84;4942202;28;20058;-64
2023/01/17 12:39:42;;;;;;;3.30;1.38;;;;;;;2.90;65.04;94269.69;4936773;28;20051;-64
2023/01/17 12:42:19;;;;;;;3.60;1.10;;;;;;;2.95;63.34;94258.16;4959096;28;20157;-62
2023/01/17 12:45:10;;;;;;;2.45;1.10;;;;;;;3.07;64.01;94261.28;4935405;28;20051;-64
2023/01/17 12:47:43;;;;;;;6.10;1.15;;;;;;;2.98;65.44;94244.22;4951577;28;20050;-64
2023/01/17 12:50:25;;;;;;;3.70;1.20;;;;;;;3.14;65.83;94252.13;4955255;28;20784;-65
2023/01/17 12:52:58;;;;;;;4.75;0.90;;;;;;;3.01;64.90;94245.53;4956652;28;20054;-63
2023/01/17 12:55:53;;;;;;;1.85;1.02;;;;;;;3.06;63.05;94243.63;4936386;28;20066;-63
2023/01/17 12:58:28;;;;;;;3.63;0.70;;;;;;;3.02;62.59;94233.78;4936057;28;20054;-63
2023/01/17 13:01:28;;;;;;;1.75;0.73;;;;;;;2.84;65.74;94230.72;4920344;28;20147;-63
2023/01/17 13:04:09;;;;;;;2.88;0.60;;;;;;;2.75;62.34;94225.19;4943223;28;20050;-63
2023/01/17 13:06:51;;;;;;;2.30;0.68;;;;;;;2.69;63.50;94223.63;4933081;28;20053;-64
2023/01/17 13:09:21;;;;;;;3.53;0.73;;;;;;;2.70;61.68;94212.66;4955163;28;20156;-62
2023/01/17 13:11:56;;;;;;;1.75;0.60;;;;;;;2.60;62.62;94226.91;4948894;28;20043;-63
2023/01/17 13:14:23;;;;;;;0.73;0.50;;;;;;;2.63;61.05;94222.88;4951507;28;20062;-63
2023/01/17 13:17:05;;;;;;;2.47;0.80;;;;;;;2.62;62.43;94226.63;4951523;28;20055;-62